createdAt,value
2023-01-07T00:02:46.997Z,101061.53
2023-01-07T00:05:48.535Z,101056.91
2023-01-07T00:08:51.555Z,101052.91
2023-01-07T00:11:54.386Z,101052.91
2023-01-07T00:15:00.179Z,101054.72
2023-01-07T00:18:01.652Z,101056.06
2023-01-07T00:21:05.076Z,101059.72
2023-01-07T00:24:07.502Z,101066.72
2023-01-07T00:27:14.200Z,101067.34
2023-01-07T00:30:19.977Z,101073.19
2023-01-07T00:33:21.477Z,101067.22
2023-01-07T00:36:24.752Z,101066.34
2023-01-07T00:39:26.460Z,101064.91
2023-01-07T00:42:29.263Z,101066.59
2023-01-07T00:45:35.618Z,101068.66
2023-01-07T00:48:37.115Z,101062.50
2023-01-07T00:51:38.582Z,101055.09
2023-01-07T00:54:40.134Z,101063.94
2023-01-07T00:57:43.788Z,101064.28
2023-01-07T01:00:45.812Z,101057.72
2023-01-07T01:03:47.407Z,101058.00
2023-01-07T01:06:48.920Z,101064.31
2023-01-07T01:09:50.506Z,101061.63
2023-01-07T01:12:57.412Z,101054.00
2023-01-07T01:16:07.945Z,101047.31
2023-01-07T01:19:09.486Z,101060.91
2023-01-07T01:22:10.961Z,101057.88
2023-01-07T01:25:13.145Z,101058.25
2023-01-07T01:28:19.148Z,101053.63
2023-01-07T01:31:20.649Z,101049.16
2023-01-07T01:34:25.535Z,101059.84
2023-01-07T01:37:27.102Z,101059.91
2023-01-07T01:40:29.768Z,101060.16
2023-01-07T01:43:34.546Z,101053.00
2023-01-07T01:46:38.191Z,101058.22
2023-01-07T01:49:45.146Z,101056.53
2023-01-07T01:52:49.876Z,101057.63
2023-01-07T01:55:54.373Z,101053.63
2023-01-07T01:58:59.855Z,101059.59
2023-01-07T02:02:02.068Z,101062.13
2023-01-07T02:05:04.718Z,101052.91
2023-01-07T02:08:06.769Z,101053.38
2023-01-07T02:11:19.696Z,101043.66
2023-01-07T02:14:33.939Z,101055.19
2023-01-07T02:17:43.800Z,101054.69
2023-01-07T02:20:52.892Z,101056.91
2023-01-07T02:24:42.240Z,101058.72
2023-01-07T02:28:05.722Z,101047.94
2023-01-07T02:31:29.042Z,101047.69
2023-01-07T02:34:37.846Z,101050.09
2023-01-07T02:37:44.568Z,101034.59
2023-01-07T02:40:52.997Z,101038.09
2023-01-07T02:43:59.591Z,101030.81
2023-01-07T02:47:05.046Z,101028.50
2023-01-07T02:50:08.525Z,101022.03
2023-01-07T02:53:13.723Z,101020.13
2023-01-07T02:56:24.368Z,101003.22
2023-01-07T02:59:43.315Z,101008.69
2023-01-07T03:03:07.844Z,101005.19
2023-01-07T03:06:22.468Z,101013.19
2023-01-07T03:09:31.925Z,101002.75
2023-01-07T03:12:35.404Z,100993.03
2023-01-07T03:15:40.315Z,100996.81
2023-01-07T03:18:46.166Z,100992.56
2023-01-07T03:21:49.137Z,100991.72
2023-01-07T03:24:52.518Z,100984.81
2023-01-07T03:27:54.569Z,100994.66
2023-01-07T03:30:57.009Z,100988.34
2023-01-07T03:34:00.585Z,100985.28
2023-01-07T03:37:08.213Z,100987.69
2023-01-07T03:40:11.324Z,100983.22
2023-01-07T03:43:14.728Z,100975.13
2023-01-07T03:46:16.412Z,100969.19
2023-01-07T03:49:17.956Z,100966.50
2023-01-07T03:52:20.863Z,100969.31
2023-01-07T03:55:22.712Z,100975.63
2023-01-07T03:58:26.987Z,100972.72
2023-01-07T04:01:28.615Z,100963.75
2023-01-07T04:04:30.283Z,100956.56
2023-01-07T04:07:33.453Z,100953.91
2023-01-07T04:10:34.936Z,100945.16
2023-01-07T04:13:36.540Z,100939.59
2023-01-07T04:16:38.114Z,100941.03
2023-01-07T04:19:39.766Z,100939.34
2023-01-07T04:22:42.620Z,100928.56
2023-01-07T04:25:46.221Z,100918.19
2023-01-07T04:28:48.859Z,100912.72
2023-01-07T04:31:50.722Z,100912.25
2023-01-07T04:34:59.080Z,100915.88
2023-01-07T04:38:03.821Z,100908.59
2023-01-07T04:41:05.857Z,100897.19
2023-01-07T04:44:09.051Z,100883.75
2023-01-07T04:47:10.593Z,100885.00
2023-01-07T04:50:12.095Z,100881.81
2023-01-07T04:53:15.703Z,100881.56
2023-01-07T04:56:17.465Z,100874.44
2023-01-07T04:59:19.996Z,100872.13
2023-01-07T05:02:22.458Z,100863.38
2023-01-07T05:05:24.508Z,100863.13
2023-01-07T05:08:27.824Z,100859.22
2023-01-07T05:11:29.403Z,100849.25
2023-01-07T05:14:33.173Z,100849.25
2023-01-07T05:17:35.308Z,100842.38
2023-01-07T05:20:38.837Z,100840.91
2023-01-07T05:23:42.668Z,100835.78
2023-01-07T05:26:44.148Z,100826.63
2023-01-07T05:29:46.131Z,100826.75
2023-01-07T05:32:47.626Z,100832.47
2023-01-07T05:35:49.272Z,100820.53
2023-01-07T05:38:53.618Z,100824.72
2023-01-07T05:41:55.554Z,100828.59
2023-01-07T05:44:59.110Z,100822.53
2023-01-07T05:48:00.609Z,100818.66
2023-01-07T05:51:02.155Z,100816.06
2023-01-07T05:54:05.133Z,100813.28
2023-01-07T05:57:06.590Z,100820.59
2023-01-07T06:00:09.220Z,100809.69
2023-01-07T06:03:13.631Z,100810.44
2023-01-07T06:06:15.128Z,100802.25
2023-01-07T06:09:18.023Z,100813.16
2023-01-07T06:12:19.991Z,100821.88
2023-01-07T06:15:21.475Z,100817.38
2023-01-07T06:18:22.926Z,100815.47
2023-01-07T06:21:24.341Z,100815.59
2023-01-07T06:24:30.340Z,100812.16
2023-01-07T06:27:32.076Z,100818.34
2023-01-07T06:30:33.540Z,100813.28
2023-01-07T06:33:35.001Z,100813.28
2023-01-07T06:36:36.505Z,100815.47
2023-01-07T06:39:39.326Z,100808.19
2023-01-07T06:42:41.117Z,100810.00
2023-01-07T06:45:42.611Z,100799.69
2023-01-07T06:48:44.137Z,100791.97
2023-01-07T06:51:45.563Z,100793.03
2023-01-07T06:54:48.703Z,100788.81
2023-01-07T06:57:50.272Z,100791.34
2023-01-07T07:00:51.776Z,100790.88
2023-01-07T07:03:53.343Z,100790.03
2023-01-07T07:06:55.217Z,100786.63
2023-01-07T07:09:57.869Z,100781.06
2023-01-07T07:12:59.387Z,100770.53
2023-01-07T07:16:00.896Z,100780.00
2023-01-07T07:19:02.448Z,100786.88
2023-01-07T07:22:04.838Z,100775.38
2023-01-07T07:25:13.105Z,100771.03
2023-01-07T07:28:21.199Z,100762.66
2023-01-07T07:31:22.683Z,100763.16
2023-01-07T07:34:24.130Z,100754.44
2023-01-07T07:37:25.599Z,100759.13
2023-01-07T07:40:28.389Z,100754.44
2023-01-07T07:43:29.845Z,100755.50
2023-01-07T07:46:31.431Z,100747.03
2023-01-07T07:49:32.913Z,100746.50
2023-01-07T07:52:35.212Z,100746.75
2023-01-07T07:55:38.043Z,100742.75
2023-01-07T07:58:39.703Z,100745.16
2023-01-07T08:01:41.190Z,100742.97
2023-01-07T08:04:45.588Z,100741.72
2023-01-07T08:07:47.059Z,100742.53
2023-01-07T08:10:49.938Z,100743.66
2023-01-07T08:13:52.031Z,100732.47
2023-01-07T08:16:53.585Z,100742.66
2023-01-07T08:19:55.012Z,100729.94
2023-01-07T08:23:01.248Z,100730.97
2023-01-07T08:26:04.200Z,100725.84
2023-01-07T08:29:05.657Z,100719.78
2023-01-07T08:32:07.164Z,100720.97
2023-01-07T08:35:09.957Z,100719.00
2023-01-07T08:38:18.759Z,100712.31
2023-01-07T08:41:22.554Z,100714.56
2023-01-07T08:44:24.031Z,100705.59
2023-01-07T08:47:25.601Z,100696.50
2023-01-07T08:50:34.911Z,100689.94
2023-01-07T08:53:43.251Z,100681.53
2023-01-07T08:56:46.027Z,100682.28
2023-01-07T08:59:47.514Z,100674.25
2023-01-07T09:02:51.310Z,100673.41
2023-01-07T09:05:54.394Z,100667.78
2023-01-07T09:08:55.849Z,100655.31
2023-01-07T09:11:58.682Z,100653.19
2023-01-07T09:15:00.319Z,100639.31
2023-01-07T09:18:08.088Z,100637.47
2023-01-07T09:21:09.536Z,100633.56
2023-01-07T09:24:11.037Z,100635.44
2023-01-07T09:27:13.895Z,100630.53
2023-01-07T09:30:15.986Z,100623.06
2023-01-07T09:33:18.838Z,100617.88
2023-01-07T09:36:20.317Z,100620.84
2023-01-07T09:39:28.839Z,100618.34
2023-01-07T09:42:38.448Z,100614.25
2023-01-07T09:45:42.684Z,100590.34
2023-01-07T09:48:50.807Z,100587.00
2023-01-07T09:51:55.231Z,100587.66
2023-01-07T09:55:02.082Z,100586.72
2023-01-07T09:58:14.553Z,100577.41
2023-01-07T10:01:22.384Z,100570.25
2023-01-07T10:04:31.458Z,100572.06
2023-01-07T10:07:37.808Z,100565.88
2023-01-07T10:10:47.447Z,100567.31
2023-01-07T10:14:01.773Z,100552.66
2023-01-07T10:17:09.852Z,100547.75
2023-01-07T10:20:21.832Z,100549.00
2023-01-07T10:23:25.861Z,100541.28
2023-01-07T10:26:31.891Z,100542.41
2023-01-07T10:29:38.904Z,100531.84
2023-01-07T10:32:44.859Z,100530.28
2023-01-07T10:35:47.907Z,100525.38
2023-01-07T10:38:56.438Z,100529.31
2023-01-07T10:42:02.603Z,100515.81
2023-01-07T10:45:21.688Z,100512.44
2023-01-07T10:48:42.258Z,100501.97
2023-01-07T10:51:59.611Z,100489.91
2023-01-07T10:55:10.356Z,100481.16
2023-01-07T10:58:12.156Z,100486.94
2023-01-07T11:01:16.255Z,100481.88
2023-01-07T11:04:20.246Z,100476.22
2023-01-07T11:07:29.799Z,100461.19
2023-01-07T11:10:34.068Z,100458.53
2023-01-07T11:13:36.319Z,100454.81
2023-01-07T11:16:43.994Z,100441.31
2023-01-07T11:19:51.880Z,100441.00
2023-01-07T11:22:53.384Z,100430.31
2023-01-07T11:26:13.931Z,100423.09
2023-01-07T11:29:17.424Z,100407.31
2023-01-07T11:32:25.336Z,100394.66
2023-01-07T11:35:30.688Z,100387.94
2023-01-07T11:38:34.051Z,100376.69
2023-01-07T11:41:35.640Z,100373.63
2023-01-07T11:44:37.348Z,100366.91
2023-01-07T11:47:45.627Z,100351.88
2023-01-07T11:50:58.821Z,100341.75
2023-01-07T11:54:00.362Z,100326.03
2023-01-07T11:57:12.447Z,100312.41
2023-01-07T12:00:15.398Z,100305.34
2023-01-07T12:03:18.288Z,100296.34
2023-01-07T12:06:29.831Z,100295.22
2023-01-07T12:09:37.709Z,100285.06
2023-01-07T12:12:43.027Z,100282.53
2023-01-07T12:15:49.840Z,100281.41
2023-01-07T12:18:59.971Z,100263.97
2023-01-07T12:22:09.950Z,100255.78
2023-01-07T12:25:33.755Z,100247.44
2023-01-07T12:28:49.904Z,100235.91
2023-01-07T12:32:06.986Z,100234.84
2023-01-07T12:35:14.462Z,100231.91
2023-01-07T12:38:20.103Z,100240.22
2023-01-07T12:41:25.620Z,100239.53
2023-01-07T12:44:27.168Z,100225.16
2023-01-07T12:47:34.952Z,100227.16
2023-01-07T12:50:41.156Z,100216.91
2023-01-07T12:53:46.637Z,100205.13
2023-01-07T12:56:52.174Z,100217.78
2023-01-07T13:00:00.187Z,100219.78
2023-01-07T13:03:10.620Z,100202.75
2023-01-07T13:06:17.387Z,100195.13
2023-01-07T13:09:25.537Z,100188.25
2023-01-07T13:12:41.596Z,100190.09
2023-01-07T13:15:44.379Z,100169.13
2023-01-07T13:18:49.165Z,100167.13
2023-01-07T13:21:52.179Z,100164.91
2023-01-07T13:25:03.977Z,100148.03
2023-01-07T13:28:28.872Z,100132.00
2023-01-07T13:31:45.499Z,100128.09
2023-01-07T13:34:59.850Z,100118.78
2023-01-07T13:38:14.216Z,100110.25
2023-01-07T13:41:28.283Z,100116.41
2023-01-07T13:44:50.243Z,100117.56
2023-01-07T13:47:53.547Z,100105.72
2023-01-07T13:50:57.416Z,100099.63
2023-01-07T13:54:00.321Z,100094.97
2023-01-07T13:57:44.450Z,100083.59
2023-01-07T14:01:01.613Z,100084.97
2023-01-07T14:04:35.536Z,100082.13
2023-01-07T14:07:44.448Z,100074.06
2023-01-07T14:10:52.089Z,100067.69
2023-01-07T14:14:00.634Z,100069.16
2023-01-07T14:17:10.281Z,100066.19
2023-01-07T14:20:17.325Z,100054.88
2023-01-07T14:23:27.726Z,100060.22
2023-01-07T14:26:33.079Z,100061.88
2023-01-07T14:29:42.014Z,100054.41
2023-01-07T14:32:57.735Z,100031.28
2023-01-07T14:36:00.820Z,100015.94
2023-01-07T14:39:02.291Z,100021.81
2023-01-07T14:42:26.841Z,100026.09
2023-01-07T14:45:55.008Z,100024.94
2023-01-07T14:49:39.448Z,100041.38
2023-01-07T14:52:57.051Z,100035.66
2023-01-07T14:56:17.608Z,100033.88
2023-01-07T14:59:36.641Z,100038.13
2023-01-07T15:03:07.978Z,100017.19
2023-01-07T15:06:27.459Z,100010.81
2023-01-07T15:09:36.745Z,100002.50
2023-01-07T15:12:39.898Z,99984.28
2023-01-07T15:15:45.515Z,99984.03
2023-01-07T15:18:50.147Z,99979.88
2023-01-07T15:22:00.875Z,99978.25
2023-01-07T15:25:08.972Z,99979.69
2023-01-07T15:28:16.066Z,99979.00
2023-01-07T15:31:22.815Z,99984.03
2023-01-07T15:34:31.194Z,99989.81
2023-01-07T15:37:34.343Z,99991.78
2023-01-07T15:40:37.113Z,99981.56
2023-01-07T15:43:44.319Z,99986.75
2023-01-07T15:46:46.021Z,99984.34
2023-01-07T15:49:49.076Z,99985.59
2023-01-07T15:52:52.372Z,99982.06
2023-01-07T15:55:57.402Z,99980.28
2023-01-07T15:58:58.929Z,99982.97
2023-01-07T16:02:13.118Z,99983.25
2023-01-07T16:05:17.545Z,99981.72
2023-01-07T16:08:21.756Z,99980.72
2023-01-07T16:11:25.491Z,99981.44
2023-01-07T16:14:34.373Z,99980.44
2023-01-07T16:17:35.831Z,99991.81
2023-01-07T16:20:40.773Z,99982.88
2023-01-07T16:23:42.290Z,99995.22
2023-01-07T16:26:46.388Z,100001.91
2023-01-07T16:29:50.958Z,99995.88
2023-01-07T16:32:52.509Z,99985.09
2023-01-07T16:35:56.421Z,99965.03
2023-01-07T16:38:59.323Z,99956.22
2023-01-07T16:42:01.855Z,99962.66
2023-01-07T16:45:06.125Z,99952.31
2023-01-07T16:48:19.904Z,99958.19
2023-01-07T16:51:37.490Z,99958.31
2023-01-07T16:54:38.942Z,99957.03
2023-01-07T16:57:42.357Z,99941.50
2023-01-07T17:00:48.662Z,99935.72
2023-01-07T17:03:53.805Z,99931.41
2023-01-07T17:06:57.958Z,99941.63
2023-01-07T17:10:02.209Z,99942.47
2023-01-07T17:13:05.562Z,99920.91
2023-01-07T17:16:28.738Z,99919.75
2023-01-07T17:19:34.666Z,99915.28
2023-01-07T17:22:38.401Z,99908.56
2023-01-07T17:25:39.886Z,99904.13
2023-01-07T17:28:44.280Z,99914.41
2023-01-07T17:31:46.400Z,99906.72
2023-01-07T17:34:47.955Z,99909.66
2023-01-07T17:37:51.314Z,99906.84
2023-01-07T17:40:53.162Z,99907.16
2023-01-07T17:43:54.616Z,99898.06
2023-01-07T17:46:56.172Z,99892.91
2023-01-07T17:49:57.685Z,99887.72
2023-01-07T17:53:04.506Z,99899.91
2023-01-07T17:56:06.572Z,99903.56
2023-01-07T17:59:13.472Z,99911.38
2023-01-07T18:02:17.547Z,99898.81
2023-01-07T18:05:26.733Z,99908.59
2023-01-07T18:08:29.530Z,99923.38
2023-01-07T18:11:35.215Z,99890.38
2023-01-07T18:14:36.938Z,99894.13
2023-01-07T18:17:38.465Z,99889.16
2023-01-07T18:20:42.665Z,99899.09
2023-01-07T18:23:45.504Z,99893.47
2023-01-07T18:26:47.361Z,99904.72
2023-01-07T18:29:48.748Z,99888.03
2023-01-07T18:32:50.252Z,99903.88
2023-01-07T18:35:51.684Z,99890.00
2023-01-07T18:38:54.570Z,99902.63
2023-01-07T18:42:00.473Z,99901.91
2023-01-07T18:45:02.051Z,99905.56
2023-01-07T18:48:04.216Z,99903.19
2023-01-07T18:51:09.696Z,99919.28
2023-01-07T18:54:12.595Z,99904.84
2023-01-07T18:57:14.073Z,99890.69
2023-01-07T19:00:21.872Z,99885.94
2023-01-07T19:03:31.041Z,99883.84
2023-01-07T19:06:32.831Z,99888.72
2023-01-07T19:09:35.747Z,99886.44
2023-01-07T19:12:37.317Z,99891.31
2023-01-07T19:15:39.393Z,99878.44
2023-01-07T19:18:40.992Z,99866.44
2023-01-07T19:21:49.243Z,99880.31
2023-01-07T19:24:55.610Z,99877.81
2023-01-07T19:27:57.477Z,99880.69
2023-01-07T19:30:58.983Z,99867.22
2023-01-07T19:34:06.909Z,99861.81
2023-01-07T19:37:08.373Z,99856.88
2023-01-07T19:40:12.935Z,99849.75
2023-01-07T19:43:14.686Z,99844.97
2023-01-07T19:46:20.704Z,99812.53
2023-01-07T19:49:22.886Z,99795.84
2023-01-07T19:52:24.618Z,99791.41
2023-01-07T19:55:31.151Z,99770.97
2023-01-07T19:58:33.512Z,99764.63
2023-01-07T20:01:39.609Z,99754.59
2023-01-07T20:04:41.199Z,99729.81
2023-01-07T20:07:42.689Z,99725.44
2023-01-07T20:10:56.237Z,99719.59
2023-01-07T20:13:57.703Z,99695.41
2023-01-07T20:17:05.420Z,99678.34
2023-01-07T20:20:08.421Z,99682.16
2023-01-07T20:23:10.043Z,99673.81
2023-01-07T20:26:15.890Z,99662.53
2023-01-07T20:29:17.515Z,99658.28
2023-01-07T20:32:19.920Z,99661.22
2023-01-07T20:35:21.475Z,99654.75
2023-01-07T20:38:22.952Z,99662.25
2023-01-07T20:41:27.146Z,99662.50
2023-01-07T20:44:28.732Z,99662.16
2023-01-07T20:47:33.147Z,99682.56
2023-01-07T20:50:38.268Z,99676.72
2023-01-07T20:53:39.759Z,99676.06
2023-01-07T20:56:42.845Z,99686.50
2023-01-07T20:59:44.654Z,99715.09
2023-01-07T21:02:46.268Z,99731.56
2023-01-07T21:05:47.919Z,99708.28
2023-01-07T21:08:49.982Z,99710.41
2023-01-07T21:11:52.864Z,99717.75
2023-01-07T21:14:54.511Z,99709.75
2023-01-07T21:17:56.153Z,99704.88
2023-01-07T21:20:59.232Z,99708.66
2023-01-07T21:24:00.855Z,99698.38
2023-01-07T21:27:03.825Z,99677.97
2023-01-07T21:30:10.761Z,99673.03
2023-01-07T21:33:26.871Z,99688.34
2023-01-07T21:36:28.710Z,99679.38
2023-01-07T21:39:30.223Z,99673.19
2023-01-07T21:42:34.641Z,99661.31
2023-01-07T21:45:36.457Z,99654.22
2023-01-07T21:48:40.000Z,99649.50
2023-01-07T21:51:41.623Z,99654.38
2023-01-07T21:54:43.108Z,99651.41
2023-01-07T21:57:46.183Z,99652.25
2023-01-07T22:00:49.545Z,99663.91
2023-01-07T22:03:57.707Z,99647.91
2023-01-07T22:06:59.185Z,99642.91
2023-01-07T22:10:00.777Z,99644.41
2023-01-07T22:13:03.602Z,99671.75
2023-01-07T22:16:05.962Z,99672.22
2023-01-07T22:19:08.813Z,99656.00
2023-01-07T22:22:10.317Z,99650.34
2023-01-07T22:25:12.042Z,99660.84
2023-01-07T22:28:23.712Z,99652.25
2023-01-07T22:31:27.175Z,99650.19
2023-01-07T22:34:35.746Z,99641.50
2023-01-07T22:37:37.316Z,99636.47
2023-01-07T22:40:39.303Z,99638.53
2023-01-07T22:43:42.059Z,99631.31
2023-01-07T22:46:45.377Z,99619.03
2023-01-07T22:49:47.815Z,99624.03
2023-01-07T22:52:49.296Z,99614.31
2023-01-07T22:55:50.935Z,99621.22
2023-01-07T22:58:53.816Z,99622.84
2023-01-07T23:01:55.391Z,99623.00
2023-01-07T23:04:56.915Z,99627.72
2023-01-07T23:07:58.411Z,99628.88
2023-01-07T23:10:59.996Z,99624.66
2023-01-07T23:14:03.464Z,99625.59
2023-01-07T23:17:05.671Z,99646.47
2023-01-07T23:20:12.215Z,99656.31
2023-01-07T23:23:13.929Z,99648.53
2023-01-07T23:26:15.568Z,99654.78
2023-01-07T23:29:18.858Z,99656.38
2023-01-07T23:32:20.361Z,99662.44
2023-01-07T23:35:29.113Z,99679.19
2023-01-07T23:38:30.643Z,99665.44
2023-01-07T23:41:32.661Z,99659.97
2023-01-07T23:44:35.387Z,99655.00
2023-01-07T23:47:36.919Z,99653.47
2023-01-07T23:50:38.490Z,99629.78
2023-01-07T23:53:41.605Z,99637.34
2023-01-07T23:56:43.093Z,99622.97
2023-01-07T23:59:45.990Z,99624.63
